Time;durP1;ratioP1;P1;durP2;ratioP2;P2;SDS_P1;SDS_P2;PMS_P1;PMS_P2;Temp;Humidity;BMP_temperature;BMP_pressure;BME280_temperature;BME280_humidity;BME280_pressure;Samples;Min_cycle;Max_cycle;Signal;HPM_P1;HPM_P2
2023/05/11 00:01:13;;;;;;;20.38;13.48;;;12.30;99.90;;;;;;5038770;28;20060;-73
2023/05/11 00:03:39;;;;;;;21.92;13.95;;;12.30;99.90;;;;;;4994065;28;219365;-72
2023/05/11 00:06:05;;;;;;;19.60;12.93;;;12.30;99.90;;;;;;5029512;28;20048;-72
2023/05/11 00:08:31;;;;;;;22.77;13.90;;;12.20;99.90;;;;;;4998714;28;214178;-71
2023/05/11 00:10:59;;;;;;;23.48;13.80;;;12.30;99.90;;;;;;5045320;28;20052;-71
2023/05/11 00:13:26;;;;;;;22.05;14.02;;;12.30;99.90;;;;;;4987322;28;216329;-71
2023/05/11 00:15:52;;;;;;;21.83;13.75;;;12.20;99.90;;;;;;5045087;28;20790;-72
2023/05/11 00:18:18;;;;;;;22.58;14.40;;;12.20;99.90;;;;;;4992969;28;207414;-72
2023/05/11 00:20:44;;;;;;;24.50;14.30;;;12.20;99.90;;;;;;5025003;28;20053;-71
2023/05/11 00:23:10;;;;;;;20.90;13.47;;;12.20;99.90;;;;;;5001968;28;207251;-71
2023/05/11 00:25:38;;;;;;;20.73;13.30;;;12.20;99.90;;;;;;5058585;28;20044;-72
2023/05/11 00:28:04;;;;;;;20.47;13.27;;;12.20;99.90;;;;;;5009270;28;211035;-72
2023/05/11 00:33:19;;;;;;;22.90;14.32;;;12.20;99.90;;;;;;5012766;28;210611;-71
2023/05/11 00:35:47;;;;;;;22.73;14.65;;;12.20;99.90;;;;;;5065898;28;20048;-72
2023/05/11 00:38:15;;;;;;;20.87;13.60;;;12.20;99.90;;;;;;5006449;28;223269;-72
2023/05/11 00:40:41;;;;;;;22.75;15.32;;;12.20;99.90;;;;;;5061698;28;20055;-71
2023/05/11 00:43:09;;;;;;;23.95;15.32;;;12.20;99.90;;;;;;5004783;28;227366;-72
2023/05/11 00:45:36;;;;;;;25.60;16.38;;;12.10;99.90;;;;;;5056623;28;20053;-71
2023/05/11 00:48:03;;;;;;;26.80;16.60;;;12.10;99.90;;;;;;5005981;28;208386;-72
2023/05/11 00:50:29;;;;;;;28.30;16.08;;;12.10;99.90;;;;;;5067702;28;20060;-71
2023/05/11 00:52:57;;;;;;;25.30;15.65;;;12.10;99.90;;;;;;5042372;28;207668;-71
2023/05/11 00:55:23;;;;;;;24.77;14.85;;;12.10;99.90;;;;;;5013041;28;20053;-71
2023/05/11 00:57:49;;;;;;;24.77;14.50;;;12.10;99.90;;;;;;5050595;28;20048;-73
2023/05/11 01:00:15;;;;;;;22.23;14.40;;;12.10;99.90;;;;;;4976868;28;212191;-69
2023/05/11 01:02:42;;;;;;;24.73;14.82;;;12.00;99.90;;;;;;5054477;28;20041;-70
2023/05/11 01:05:08;;;;;;;21.85;14.25;;;12.00;99.90;;;;;;5020110;28;205539;-72
2023/05/11 01:07:40;;;;;;;22.45;14.48;;;12.00;99.90;;;;;;5081200;28;20053;-72
2023/05/11 01:10:44;;;;;;;26.77;16.15;;;12.10;99.90;;;;;;4999635;28;182136;-72
2023/05/11 01:13:38;;;;;;;21.90;14.65;;;12.00;99.90;;;;;;5000184;28;207603;-72
2023/05/11 01:16:13;;;;;;;23.80;15.32;;;12.00;99.90;;;;;;5079197;28;20048;-71
2023/05/11 01:19:11;;;;;;;25.27;15.63;;;12.00;99.90;;;;;;5015728;28;209353;-72
2023/05/11 01:21:39;;;;;;;23.85;14.80;;;12.00;99.90;;;;;;5082281;28;20059;-71
2023/05/11 01:24:35;;;;;;;27.58;16.17;;;11.90;99.90;;;;;;5012782;28;208845;-72
2023/05/11 01:27:25;;;;;;;25.25;15.43;;;11.90;99.90;;;;;;5071849;28;20048;-72
2023/05/11 01:30:26;;;;;;;26.83;16.55;;;11.90;99.90;;;;;;4994297;28;211023;-72
2023/05/11 01:32:56;;;;;;;29.75;16.55;;;11.90;99.90;;;;;;5071562;28;21643;-72
2023/05/11 01:35:25;;;;;;;26.43;16.63;;;11.80;99.90;;;;;;5015930;28;68735;-72
2023/05/11 01:37:57;;;;;;;27.83;17.05;;;11.80;99.90;;;;;;5077694;28;20290;-71
2023/05/11 01:40:30;;;;;;;28.10;16.85;;;11.80;99.90;;;;;;5023531;28;37834;-72
2023/05/11 01:42:58;;;;;;;29.65;17.98;;;11.80;99.90;;;;;;5052456;28;200779;-71
2023/05/11 01:45:28;;;;;;;25.23;15.15;;;11.80;99.90;;;;;;5018760;28;20037;-72
2023/05/11 01:47:56;;;;;;;26.27;15.95;;;11.80;99.90;;;;;;5057869;28;215384;-70
2023/05/11 01:50:24;;;;;;;26.80;16.40;;;11.80;99.90;;;;;;5019954;28;55479;-72
2023/05/11 01:52:51;;;;;;;26.13;16.48;;;11.80;99.90;;;;;;5074425;28;20063;-72
2023/05/11 01:55:20;;;;;;;32.08;17.33;;;11.70;99.90;;;;;;5024220;28;209941;-71
2023/05/11 01:57:52;;;;;;;32.95;18.02;;;11.70;99.90;;;;;;5078875;28;20060;-70
2023/05/11 02:00:18;;;;;;;;;;;11.70;99.90;;;;;;4984964;28;209487;-72
2023/05/11 02:02:46;;;;;;;34.60;20.02;;;11.70;99.90;;;;;;5070630;28;19924;-71
2023/05/11 02:05:18;;;;;;;32.58;18.95;;;11.70;99.90;;;;;;5002764;28;209879;-72
2023/05/11 02:07:45;;;;;;;36.05;19.27;;;11.70;99.90;;;;;;5063997;28;20048;-71
2023/05/11 02:10:13;;;;;;;33.97;19.17;;;11.60;99.90;;;;;;5004468;28;210031;-72
2023/05/11 02:12:40;;;;;;;31.38;18.35;;;11.60;99.90;;;;;;5061344;28;20060;-72
2023/05/11 02:15:08;;;;;;;33.13;18.92;;;11.60;99.90;;;;;;5009351;28;208034;-72
2023/05/11 02:17:35;;;;;;;30.92;18.02;;;11.60;99.90;;;;;;5079593;28;20057;-72
2023/05/11 02:20:03;;;;;;;29.77;17.90;;;11.60;99.90;;;;;;5027035;28;214100;-72
2023/05/11 02:22:31;;;;;;;27.95;16.55;;;11.60;99.90;;;;;;5076938;28;20052;-73
2023/05/11 02:24:57;;;;;;;26.23;16.08;;;11.60;99.90;;;;;;5025213;28;203793;-72
2023/05/11 02:27:23;;;;;;;24.25;15.32;;;11.60;99.90;;;;;;5072335;28;20539;-72
2023/05/11 02:29:49;;;;;;;22.58;14.35;;;11.50;99.90;;;;;;5014560;28;207365;-73
2023/05/11 02:32:18;;;;;;;21.55;13.05;;;11.50;99.90;;;;;;5073942;28;20055;-72
2023/05/11 02:34:53;;;;;;;20.17;13.00;;;11.50;99.90;;;;;;4988725;28;212213;-73
2023/05/11 02:37:23;;;;;;;18.92;12.93;;;11.50;99.90;;;;;;5076720;28;20051;-72
2023/05/11 02:39:55;;;;;;;19.48;11.82;;;11.50;99.90;;;;;;5020972;28;210308;-73
2023/05/11 02:42:22;;;;;;;20.35;12.35;;;11.50;99.90;;;;;;5079602;28;20048;-73
2023/05/11 02:45:02;;;;;;;22.10;13.48;;;11.50;99.90;;;;;;4990117;28;209598;-72
2023/05/11 02:47:33;;;;;;;21.92;13.45;;;11.40;99.90;;;;;;5059749;28;20427;-72
2023/05/11 02:50:03;;;;;;;23.23;14.60;;;11.50;99.90;;;;;;4999013;28;215002;-73
2023/05/11 02:52:31;;;;;;;22.77;14.20;;;11.50;99.90;;;;;;5056315;28;20546;-73
2023/05/11 02:55:00;;;;;;;23.55;13.95;;;11.40;99.90;;;;;;5011578;28;207682;-73
2023/05/11 02:57:26;;;;;;;22.85;14.23;;;11.40;99.90;;;;;;5080450;28;20051;-71
2023/05/11 02:59:52;;;;;;;25.67;15.32;;;11.40;99.90;;;;;;4992735;28;208933;-72
2023/05/11 03:02:18;;;;;;;26.83;15.23;;;11.40;99.90;;;;;;5072071;28;20454;-72
2023/05/11 03:04:44;;;;;;;25.45;15.82;;;11.40;99.90;;;;;;5018224;28;206004;-71
2023/05/11 03:07:11;;;;;;;30.35;17.08;;;11.40;99.90;;;;;;5073736;28;20491;-72
2023/05/11 03:09:37;;;;;;;37.00;18.73;;;11.50;99.90;;;;;;4995668;28;207390;-71
2023/05/11 03:12:04;;;;;;;37.60;19.15;;;11.50;99.90;;;;;;5071842;28;20051;-71
2023/05/11 03:14:35;;;;;;;36.22;19.42;;;11.50;99.90;;;;;;5029399;28;207871;-72
2023/05/11 03:17:02;;;;;;;42.20;21.50;;;11.50;99.90;;;;;;5076064;28;20561;-72
2023/05/11 03:19:29;;;;;;;32.25;18.25;;;11.50;99.90;;;;;;5004118;28;210290;-72
2023/05/11 03:21:58;;;;;;;40.30;20.45;;;11.50;99.90;;;;;;5063671;28;20048;-72
2023/05/11 03:24:25;;;;;;;33.85;19.13;;;11.50;99.90;;;;;;5000578;28;207136;-73
2023/05/11 03:26:54;;;;;;;38.60;19.83;;;11.50;99.90;;;;;;5061319;28;20075;-73
2023/05/11 03:29:23;;;;;;;32.08;18.40;;;11.50;99.90;;;;;;5011518;28;205043;-73
2023/05/11 03:31:50;;;;;;;38.55;20.05;;;11.50;99.90;;;;;;5066512;28;20506;-71
2023/05/11 03:34:16;;;;;;;32.35;19.08;;;11.50;99.90;;;;;;5004691;28;206983;-72
2023/05/11 03:36:46;;;;;;;37.35;18.98;;;11.50;99.90;;;;;;5062907;28;20056;-73
2023/05/11 03:39:15;;;;;;;28.88;17.33;;;11.50;99.90;;;;;;5029499;28;207656;-74
2023/05/11 03:41:42;;;;;;;37.20;20.48;;;11.50;99.90;;;;;;5065840;28;20418;-74
2023/05/11 03:44:10;;;;;;;34.78;19.50;;;11.50;99.90;;;;;;4993456;28;208759;-74
2023/05/11 03:46:39;;;;;;;37.38;19.63;;;11.50;99.90;;;;;;5039355;28;20049;-74
2023/05/11 03:49:06;;;;;;;37.60;19.60;;;11.50;99.90;;;;;;4984242;28;215604;-74
2023/05/11 03:51:35;;;;;;;35.50;20.10;;;11.50;99.90;;;;;;5037793;28;20059;-74
2023/05/11 03:54:01;;;;;;;38.30;20.83;;;11.50;99.90;;;;;;5010097;28;225816;-74
2023/05/11 03:56:27;;;;;;;36.60;20.02;;;11.60;99.90;;;;;;5076598;28;20479;-74
2023/05/11 03:58:53;;;;;;;40.78;20.45;;;11.60;99.90;;;;;;4994169;28;212152;-74
2023/05/11 04:01:21;;;;;;;50.42;19.60;;;11.50;99.90;;;;;;5074083;28;20063;-74
2023/05/11 04:03:49;;;;;;;56.92;21.38;;;11.50;99.90;;;;;;5000788;28;208855;-74
2023/05/11 04:06:16;;;;;;;47.03;21.40;;;11.50;99.90;;;;;;5061402;28;20032;-74
2023/05/11 04:08:43;;;;;;;59.83;21.67;;;11.50;99.90;;;;;;5024586;28;213226;-74
2023/05/11 04:11:09;;;;;;;58.33;21.05;;;11.40;99.90;;;;;;5074685;28;20052;-74
2023/05/11 04:13:35;;;;;;;47.40;20.63;;;11.40;99.90;;;;;;5018396;28;211636;-74
2023/05/11 04:16:01;;;;;;;74.20;21.98;;;11.40;99.90;;;;;;5081589;28;20414;-74
2023/05/11 04:18:28;;;;;;;44.08;18.67;;;11.40;99.90;;;;;;5023830;28;206367;-75
2023/05/11 04:20:55;;;;;;;49.47;19.33;;;11.40;99.90;;;;;;5086265;28;20060;-75
2023/05/11 04:23:21;;;;;;;61.80;19.30;;;11.40;99.90;;;;;;5010192;28;211429;-74
2023/05/11 04:25:53;;;;;;;56.35;18.95;;;11.40;99.90;;;;;;5038131;28;20057;-75
2023/05/11 04:28:21;;;;;;;36.83;18.10;;;11.40;99.90;;;;;;4993124;28;207369;-72
2023/05/11 04:30:52;;;;;;;33.15;16.50;;;11.40;99.90;;;;;;5061637;28;20059;-73
2023/05/11 04:33:19;;;;;;;35.83;17.25;;;11.40;99.90;;;;;;4990109;28;230327;-74
2023/05/11 04:35:45;;;;;;;37.13;19.13;;;11.40;99.90;;;;;;5052852;28;20438;-73
2023/05/11 04:38:11;;;;;;;38.00;18.80;;;11.40;99.90;;;;;;4992680;28;210501;-74
2023/05/11 04:40:37;;;;;;;37.22;18.17;;;11.30;99.90;;;;;;5044205;28;20056;-73
2023/05/11 04:43:03;;;;;;;30.70;16.38;;;11.40;99.90;;;;;;4998757;28;208725;-73
2023/05/11 04:45:29;;;;;;;32.67;16.80;;;11.40;99.90;;;;;;5058109;28;20044;-73
2023/05/11 04:47:55;;;;;;;35.47;17.90;;;11.40;99.90;;;;;;5044664;28;206924;-73
2023/05/11 04:50:21;;;;;;;34.50;17.92;;;11.40;99.90;;;;;;5007583;28;143226;-73
2023/05/11 04:52:47;;;;;;;37.95;18.65;;;11.40;99.90;;;;;;5062789;28;20056;-75
2023/05/11 04:55:13;;;;;;;41.15;19.33;;;11.50;99.90;;;;;;5013176;28;206697;-74
2023/05/11 04:57:39;;;;;;;46.67;20.13;;;11.50;99.90;;;;;;5057564;28;20049;-74
2023/05/11 05:00:07;;;;;;;46.58;20.55;;;11.40;99.90;;;;;;4992735;28;209941;-75
2023/05/11 05:02:33;;;;;;;55.78;22.23;;;11.50;99.90;;;;;;5068978;28;20056;-74
2023/05/11 05:04:59;;;;;;;51.08;22.50;;;11.50;99.90;;;;;;5012914;28;209745;-75
2023/05/11 05:07:26;;;;;;;57.67;24.10;;;11.50;99.90;;;;;;5069722;28;20052;-75
2023/05/11 05:09:52;;;;;;;66.38;24.60;;;11.60;99.90;;;;;;5022165;28;207348;-75
2023/05/11 05:12:18;;;;;;;52.17;23.45;;;11.60;99.90;;;;;;5067793;28;20068;-72
2023/05/11 05:14:44;;;;;;;67.68;23.92;;;11.60;99.90;;;;;;4999191;28;211194;-73
2023/05/11 05:17:10;;;;;;;79.43;25.83;;;11.60;99.90;;;;;;5068870;28;20931;-73
2023/05/11 05:19:36;;;;;;;68.30;25.67;;;11.60;99.90;;;;;;5000497;28;207162;-74
2023/05/11 05:22:03;;;;;;;78.35;27.27;;;11.60;99.90;;;;;;5069747;28;20064;-74
2023/05/11 05:24:29;;;;;;;67.50;25.60;;;11.60;99.90;;;;;;5009605;28;208274;-74
2023/05/11 05:26:55;;;;;;;54.13;23.73;;;11.60;99.90;;;;;;5077090;28;20048;-74
2023/05/11 05:29:21;;;;;;;45.80;21.20;;;11.60;99.90;;;;;;5002060;28;213054;-74
2023/05/11 05:31:47;;;;;;;40.75;18.98;;;11.60;99.90;;;;;;5063016;28;20391;-74
2023/05/11 05:34:13;;;;;;;39.55;19.90;;;11.60;99.90;;;;;;5008691;28;207564;-74
2023/05/11 05:36:39;;;;;;;39.80;18.65;;;11.60;99.90;;;;;;5074078;28;20059;-74
2023/05/11 05:39:10;;;;;;;38.58;18.23;;;11.70;99.90;;;;;;5016005;28;210587;-74
2023/05/11 05:41:36;;;;;;;;;;;11.70;99.90;;;;;;5078286;28;20526;-73
2023/05/11 05:44:02;;;;;;;36.47;18.13;;;11.70;99.90;;;;;;5016214;28;215269;-74
2023/05/11 05:46:29;;;;;;;40.35;19.45;;;11.80;99.90;;;;;;5077954;28;20055;-74
2023/05/11 05:48:55;;;;;;;41.00;19.63;;;11.80;99.90;;;;;;5014656;28;209199;-74
2023/05/11 05:51:21;;;;;;;42.97;19.77;;;11.90;99.90;;;;;;5059856;28;21595;-73
2023/05/11 05:53:47;;;;;;;42.90;19.67;;;11.90;99.90;;;;;;5007259;28;214294;-73
2023/05/11 05:56:13;;;;;;;48.85;22.20;;;12.00;99.90;;;;;;5070437;28;20053;-73
2023/05/11 05:58:40;;;;;;;42.78;20.08;;;12.00;99.90;;;;;;4993250;28;213400;-74
2023/05/11 06:01:06;;;;;;;40.20;19.02;;;12.20;99.90;;;;;;5078650;28;20412;-74
2023/05/11 06:03:32;;;;;;;42.30;19.70;;;12.30;99.90;;;;;;5015269;28;207501;-74
2023/05/11 06:05:58;;;;;;;41.88;19.88;;;12.50;99.90;;;;;;5082478;28;20429;-73
2023/05/11 06:08:24;;;;;;;39.90;19.15;;;12.70;99.90;;;;;;5027958;28;206923;-73
2023/05/11 06:10:50;;;;;;;35.50;18.27;;;12.90;99.90;;;;;;5079865;28;20507;-74
2023/05/11 06:13:16;;;;;;;33.58;17.05;;;12.90;99.90;;;;;;5014329;28;219489;-73
2023/05/11 06:15:42;;;;;;;29.50;16.05;;;12.90;99.90;;;;;;5065729;28;20345;-73
2023/05/11 06:18:08;;;;;;;39.38;18.85;;;13.00;99.90;;;;;;5029823;28;206944;-73
2023/05/11 06:20:34;;;;;;;35.97;17.88;;;12.90;99.90;;;;;;5066897;28;20036;-73
2023/05/11 06:23:01;;;;;;;34.77;17.20;;;12.90;99.90;;;;;;5032774;28;207893;-71
2023/05/11 06:25:27;;;;;;;28.15;15.75;;;13.00;99.90;;;;;;5064382;28;20547;-72
2023/05/11 06:27:53;;;;;;;28.25;15.57;;;12.90;99.90;;;;;;5083798;28;20043;-73
2023/05/11 06:30:19;;;;;;;31.80;15.80;;;12.80;99.90;;;;;;4984605;28;262449;-73
2023/05/11 06:32:45;;;;;;;25.13;14.50;;;12.90;99.90;;;;;;5062279;28;20040;-73
2023/05/11 06:35:11;;;;;;;31.67;17.27;;;12.80;99.90;;;;;;5028811;28;207074;-73
2023/05/11 06:37:37;;;;;;;28.42;16.48;;;12.90;99.90;;;;;;5079588;28;20044;-73
2023/05/11 06:40:03;;;;;;;26.65;15.85;;;12.90;99.90;;;;;;4985357;28;220473;-73
2023/05/11 06:42:29;;;;;;;26.48;15.48;;;12.90;99.90;;;;;;5054545;28;20060;-72
2023/05/11 06:44:55;;;;;;;24.30;14.68;;;12.80;99.90;;;;;;4984665;28;217797;-73
2023/05/11 06:47:22;;;;;;;26.27;15.02;;;12.90;99.90;;;;;;5059566;28;20049;-72
2023/05/11 06:49:48;;;;;;;31.73;18.42;;;12.90;99.90;;;;;;4992749;28;210809;-74
2023/05/11 06:52:14;;;;;;;29.63;17.55;;;12.90;99.90;;;;;;5051600;28;20408;-73
2023/05/11 06:54:40;;;;;;;28.92;16.80;;;12.90;99.90;;;;;;4999121;28;207579;-72
2023/05/11 06:57:06;;;;;;;25.58;15.90;;;12.90;99.90;;;;;;5049800;28;20064;-74
2023/05/11 06:59:32;;;;;;;27.92;16.45;;;13.00;99.90;;;;;;5004126;28;206401;-73
2023/05/11 07:01:58;;;;;;;24.90;15.20;;;13.00;99.90;;;;;;5080609;28;20056;-73
2023/05/11 07:04:25;;;;;;;28.63;16.17;;;13.10;99.90;;;;;;5025231;28;213366;-73
2023/05/11 07:06:51;;;;;;;29.92;17.15;;;13.00;99.90;;;;;;5076333;28;20601;-73
2023/05/11 07:09:17;;;;;;;30.63;17.90;;;13.00;99.90;;;;;;4997839;28;208732;-73
2023/05/11 07:11:43;;;;;;;30.92;18.38;;;13.00;99.90;;;;;;5069073;28;20048;-73
2023/05/11 07:14:09;;;;;;;30.65;18.13;;;13.10;99.90;;;;;;5027999;28;208818;-74
2023/05/11 07:16:38;;;;;;;29.80;17.52;;;13.10;99.90;;;;;;5079109;28;20062;-74
2023/05/11 07:19:04;;;;;;;26.15;16.00;;;13.10;99.90;;;;;;5011207;28;212292;-73
2023/05/11 07:21:33;;;;;;;26.98;16.75;;;13.10;99.90;;;;;;5064078;28;20079;-73
2023/05/11 07:23:59;;;;;;;27.45;16.60;;;13.10;99.90;;;;;;5013744;28;206367;-73
2023/05/11 07:26:26;;;;;;;27.83;16.67;;;13.20;99.90;;;;;;5062805;28;20049;-73
2023/05/11 07:28:52;;;;;;;26.05;16.48;;;13.20;99.90;;;;;;4989710;28;212594;-73
2023/05/11 07:31:18;;;;;;;30.73;16.90;;;13.20;99.90;;;;;;5047018;28;20048;-74
2023/05/11 07:33:44;;;;;;;28.38;17.70;;;13.10;99.90;;;;;;4987179;28;212360;-74
2023/05/11 07:36:10;;;;;;;26.77;16.15;;;13.00;99.90;;;;;;5039085;28;20045;-73
2023/05/11 07:38:36;;;;;;;26.75;16.52;;;13.00;99.90;;;;;;5008868;28;212267;-73
2023/05/11 07:41:03;;;;;;;27.67;17.45;;;12.90;99.90;;;;;;5078631;28;20071;-73
2023/05/11 07:43:29;;;;;;;28.98;16.30;;;12.90;99.90;;;;;;5027586;28;215610;-74
2023/05/11 07:45:55;;;;;;;25.88;16.27;;;12.80;99.90;;;;;;5077147;28;20029;-74
2023/05/11 07:48:21;;;;;;;27.05;17.27;;;12.80;99.90;;;;;;5034005;28;206950;-73
2023/05/11 07:50:48;;;;;;;28.75;16.85;;;12.70;99.90;;;;;;5060498;28;20772;-73
2023/05/11 07:53:15;;;;;;;27.90;16.70;;;12.70;99.90;;;;;;5028957;28;210958;-75
2023/05/11 07:55:41;;;;;;;30.02;17.45;;;12.70;99.90;;;;;;5070683;28;20044;-73
2023/05/11 07:58:07;;;;;;;27.37;16.40;;;12.80;99.90;;;;;;5011156;28;211474;-73
2023/05/11 08:00:33;;;;;;;26.80;15.68;;;12.80;99.90;;;;;;5071103;28;20044;-73
2023/05/11 08:03:00;;;;;;;27.90;16.63;;;12.80;99.90;;;;;;5043130;28;206590;-72
2023/05/11 08:05:26;;;;;;;27.25;15.98;;;12.90;99.90;;;;;;5055988;28;20044;-74
2023/05/11 08:07:52;;;;;;;29.25;17.40;;;12.90;99.90;;;;;;5076286;28;20713;-74
2023/05/11 08:10:19;;;;;;;27.52;16.30;;;13.00;99.90;;;;;;5029692;28;134628;-75
2023/05/11 08:12:45;;;;;;;27.90;16.25;;;13.00;99.90;;;;;;5078823;28;20395;-75
2023/05/11 08:15:11;;;;;;;27.42;15.63;;;13.00;99.90;;;;;;4996017;28;54843;-74
2023/05/11 08:17:37;;;;;;;24.27;14.02;;;13.00;99.90;;;;;;5052679;28;20068;-72
2023/05/11 08:20:05;;;;;;;27.45;14.43;;;12.90;99.90;;;;;;5034406;28;206601;-70
2023/05/11 08:22:31;;;;;;;26.48;14.85;;;12.90;99.90;;;;;;5076436;28;20048;-69
2023/05/11 08:24:57;;;;;;;28.58;14.68;;;12.90;99.90;;;;;;5008604;28;209029;-70
2023/05/11 08:27:23;;;;;;;24.00;13.68;;;13.00;99.90;;;;;;5055467;28;20526;-68
2023/05/11 08:29:50;;;;;;;26.10;13.43;;;13.00;99.90;;;;;;5011314;28;208861;-68
2023/05/11 08:32:16;;;;;;;23.25;12.98;;;12.90;99.90;;;;;;5078424;28;20047;-69
2023/05/11 08:34:43;;;;;;;21.65;11.77;;;13.00;99.90;;;;;;5016375;28;209023;-69
2023/05/11 08:37:09;;;;;;;24.08;11.90;;;12.90;99.90;;;;;;5077485;28;20411;-69
2023/05/11 08:39:36;;;;;;;27.67;12.48;;;12.80;99.90;;;;;;5008445;28;207684;-69
2023/05/11 08:42:05;;;;;;;28.90;12.10;;;12.90;99.90;;;;;;5071827;28;20056;-68
2023/05/11 08:44:32;;;;;;;28.52;13.13;;;12.80;99.90;;;;;;5002144;28;207866;-69
2023/05/11 08:46:59;;;;;;;28.13;12.65;;;12.80;99.90;;;;;;5086202;28;20057;-69
2023/05/11 08:49:26;;;;;;;28.27;12.80;;;12.80;99.90;;;;;;5013883;28;212823;-69
2023/05/11 08:51:52;;;;;;;32.47;14.23;;;12.80;99.90;;;;;;5080800;28;20486;-68
2023/05/11 08:54:18;;;;;;;29.05;14.93;;;12.80;99.90;;;;;;5023144;28;209952;-68
2023/05/11 08:56:46;;;;;;;34.08;14.85;;;12.80;99.90;;;;;;5061036;28;20052;-68
2023/05/11 08:59:13;;;;;;;31.45;15.65;;;12.90;99.90;;;;;;4981706;28;208061;-68
2023/05/11 09:01:40;;;;;;;28.33;13.80;;;13.00;99.90;;;;;;5046052;28;20071;-69
2023/05/11 09:04:07;;;;;;;33.42;14.18;;;13.10;99.90;;;;;;4992520;28;207869;-68
2023/05/11 09:06:35;;;;;;;32.40;14.45;;;13.20;99.90;;;;;;5048224;28;20049;-69
2023/05/11 09:09:02;;;;;;;28.05;12.13;;;13.30;99.90;;;;;;4998348;28;208314;-68
2023/05/11 09:11:29;;;;;;;25.40;12.02;;;13.50;99.90;;;;;;5055370;28;20063;-68
2023/05/11 09:13:55;;;;;;;23.95;12.27;;;13.50;99.90;;;;;;5003930;28;209138;-69
2023/05/11 09:16:22;;;;;;;22.08;11.52;;;13.60;99.90;;;;;;5070503;28;20053;-69
2023/05/11 09:18:49;;;;;;;21.52;11.73;;;13.60;99.90;;;;;;5018535;28;209581;-68
2023/05/11 09:21:16;;;;;;;23.75;12.80;;;13.60;99.90;;;;;;5074210;28;20051;-69
2023/05/11 09:23:42;;;;;;;25.92;13.30;;;13.60;99.90;;;;;;5011150;28;137311;-69
2023/05/11 09:26:23;;;;;;;23.35;12.65;;;13.80;99.90;;;;;;5042071;28;20655;-69
2023/05/11 09:28:51;;;;;;;25.42;12.95;;;14.00;99.90;;;;;;5007789;28;207992;-70
2023/05/11 09:31:42;;;;;;;19.75;11.77;;;13.90;99.90;;;;;;5070577;28;20056;-70
2023/05/11 09:34:15;;;;;;;23.15;13.52;;;13.80;99.90;;;;;;5024721;28;207481;-69
2023/05/11 09:36:43;;;;;;;20.67;13.32;;;13.80;99.90;;;;;;5082350;28;20055;-70
2023/05/11 09:39:09;;;;;;;23.27;15.27;;;13.90;99.90;;;;;;5019712;28;209690;-70
2023/05/11 09:41:35;;;;;;;28.38;16.23;;;13.90;99.90;;;;;;5082223;28;20048;-70
2023/05/11 09:44:07;;;;;;;29.80;17.88;;;13.90;99.90;;;;;;5018892;28;216841;-69
2023/05/11 09:46:34;;;;;;;27.33;17.15;;;14.00;99.90;;;;;;5074342;28;20044;-69
2023/05/11 09:49:00;;;;;;;27.73;17.20;;;14.10;99.90;;;;;;5014798;28;207502;-68
2023/05/11 09:51:31;;;;;;;30.05;18.73;;;14.10;99.90;;;;;;5079396;28;20410;-69
2023/05/11 09:53:59;;;;;;;31.85;19.60;;;14.20;99.90;;;;;;5020383;28;207674;-69
2023/05/11 09:56:46;;;;;;;29.73;19.02;;;14.40;99.90;;;;;;5067298;28;20053;-70
2023/05/11 09:59:15;;;;;;;23.17;15.70;;;14.50;99.90;;;;;;5008201;28;207510;-70
2023/05/11 10:01:41;;;;;;;23.15;15.95;;;14.40;99.90;;;;;;5076928;28;20040;-69
2023/05/11 10:04:07;;;;;;;27.08;18.08;;;14.50;99.90;;;;;;4996457;28;207451;-70
2023/05/11 10:06:44;;;;;;;24.45;17.20;;;14.60;99.90;;;;;;5044524;28;20541;-70
2023/05/11 10:09:10;;;;;;;23.45;15.98;;;14.60;99.90;;;;;;4998763;28;206315;-69
2023/05/11 10:11:40;;;;;;;26.10;17.27;;;14.80;99.90;;;;;;5064676;28;20048;-69
2023/05/11 10:14:08;;;;;;;22.15;14.48;;;14.90;99.90;;;;;;4996450;28;129895;-69
2023/05/11 10:16:34;;;;;;;18.60;13.93;;;14.80;99.90;;;;;;5038141;28;20055;-69
2023/05/11 10:19:01;;;;;;;19.85;14.52;;;14.90;99.90;;;;;;5016801;28;210044;-69
2023/05/11 10:21:27;;;;;;;18.45;13.88;;;15.00;99.90;;;;;;5082710;28;20052;-70
2023/05/11 10:23:56;;;;;;;19.35;14.45;;;14.90;99.90;;;;;;5020575;28;261751;-69
2023/05/11 10:26:24;;;;;;;21.50;14.80;;;15.00;99.90;;;;;;5077385;28;20052;-69
2023/05/11 10:28:51;;;;;;;19.63;14.65;;;15.00;99.90;;;;;;5016014;28;207093;-69
2023/05/11 10:31:22;;;;;;;21.75;14.10;;;15.00;99.90;;;;;;5067520;28;20530;-68
2023/05/11 10:33:52;;;;;;;20.02;14.75;;;15.20;99.90;;;;;;5014334;28;210762;-69
2023/05/11 10:36:18;;;;;;;22.20;14.50;;;15.20;99.90;;;;;;5075415;28;20052;-70
2023/05/11 10:38:44;;;;;;;22.77;14.73;;;15.30;99.90;;;;;;5027455;28;207688;-70
2023/05/11 10:41:33;;;;;;;20.55;13.73;;;15.40;99.90;;;;;;5089219;28;20437;-70
2023/05/11 10:44:32;;;;;;;26.67;14.55;;;15.60;99.90;;;;;;5025743;28;209859;-71
2023/05/11 10:47:23;;;;;;;21.30;14.77;;;15.60;99.90;;;;;;5070285;28;20075;-69
2023/05/11 10:49:57;;;;;;;18.65;13.50;;;15.80;99.90;;;;;;5028776;28;210300;-70
2023/05/11 10:52:54;;;;;;;19.80;13.43;;;15.80;99.90;;;;;;5081792;28;20040;-71
2023/05/11 10:55:56;;;;;;;18.63;13.07;;;15.80;99.90;;;;;;5002190;28;24723;-70
2023/05/11 10:58:28;;;;;;;19.20;13.63;;;16.00;99.90;;;;;;5011502;28;211211;-73
2023/05/11 11:01:13;;;;;;;18.77;13.57;;;16.00;99.90;;;;;;5074608;28;20070;-70
2023/05/11 11:03:39;;;;;;;20.63;13.50;;;16.20;99.90;;;;;;5027424;28;206909;-71
2023/05/11 11:06:21;;;;;;;17.33;12.23;;;16.50;99.90;;;;;;5086979;28;20059;-70
2023/05/11 11:09:12;;;;;;;16.13;12.05;;;16.80;99.90;;;;;;5018019;28;209701;-70
2023/05/11 11:11:46;;;;;;;15.27;11.05;;;16.80;99.90;;;;;;5059201;28;20048;-70
2023/05/11 11:14:14;;;;;;;17.15;11.35;;;17.00;99.90;;;;;;5016348;28;219029;-70
2023/05/11 11:17:00;;;;;;;16.08;11.30;;;17.40;99.90;;;;;;5084017;28;20063;-69
2023/05/11 11:19:30;;;;;;;15.60;10.15;;;18.00;99.90;;;;;;5020005;28;210298;-71
2023/05/11 11:21:56;;;;;;;12.07;8.70;;;18.70;99.90;;;;;;5077883;28;20047;-70
2023/05/11 11:24:38;;;;;;;15.15;9.50;;;18.80;99.90;;;;;;5018910;28;209086;-71
2023/05/11 11:27:05;;;;;;;14.00;8.45;;;19.30;99.90;;;;;;5076106;28;20471;-70
2023/05/11 11:29:33;;;;;;;11.43;7.03;;;19.60;99.90;;;;;;5029883;28;211244;-72
2023/05/11 11:32:23;;;;;;;10.63;7.13;;;19.90;99.90;;;;;;5085629;28;20076;-71
2023/05/11 11:34:49;;;;;;;11.57;7.45;;;19.80;99.90;;;;;;5012074;28;206920;-71
2023/05/11 11:37:17;;;;;;;12.30;7.22;;;19.60;99.90;;;;;;5082706;28;20055;-71
2023/05/11 11:39:43;;;;;;;11.27;6.80;;;19.70;99.90;;;;;;5024316;28;219831;-71
2023/05/11 11:42:14;;;;;;;11.48;6.88;;;19.60;99.90;;;;;;5080229;28;20533;-71
2023/05/11 11:44:41;;;;;;;9.95;6.47;;;19.40;99.90;;;;;;5006475;28;206288;-72
2023/05/11 11:47:20;;;;;;;10.57;6.15;;;19.30;99.90;;;;;;5072617;28;20052;-72
2023/05/11 11:49:52;;;;;;;9.43;5.13;;;19.30;99.90;;;;;;4972936;28;207384;-73
2023/05/11 11:52:27;;;;;;;9.98;5.53;;;19.40;99.90;;;;;;5054468;28;20052;-73
2023/05/11 11:54:55;;;;;;;9.52;4.88;;;19.40;99.90;;;;;;5016803;28;212729;-72
2023/05/11 11:57:45;;;;;;;9.48;4.90;;;19.50;99.90;;;;;;5073868;28;20057;-73
2023/05/11 12:00:13;;;;;;;10.43;4.88;;;19.70;99.90;;;;;;5018607;28;219597;-72
2023/05/11 12:02:41;;;;;;;11.10;4.75;;;19.60;99.90;;;;;;5072296;28;20055;-72
2023/05/11 12:05:21;;;;;;;9.93;5.03;;;19.40;99.90;;;;;;5000077;28;212853;-73
2023/05/11 12:07:50;;;;;;;9.68;5.20;;;19.00;99.90;;;;;;5069544;28;20048;-74
2023/05/11 12:10:19;;;;;;;8.80;4.50;;;19.10;99.90;;;;;;5018996;28;211055;-75
2023/05/11 12:12:50;;;;;;;12.20;4.90;;;19.20;99.90;;;;;;5071278;28;20056;-75
2023/05/11 12:15:25;;;;;;;10.05;4.90;;;19.20;99.90;;;;;;5021221;28;215506;-75
2023/05/11 12:17:51;;;;;;;9.18;4.60;;;19.50;99.90;;;;;;5075177;28;20075;-74
2023/05/11 12:20:19;;;;;;;9.85;4.63;;;19.60;99.90;;;;;;5002640;28;204753;-73
2023/05/11 12:22:47;;;;;;;9.07;5.25;;;19.80;99.90;;;;;;5072422;28;20047;-73
2023/05/11 12:25:16;;;;;;;10.05;5.05;;;19.60;99.90;;;;;;5026815;28;206414;-72
2023/05/11 12:28:01;;;;;;;8.25;4.40;;;19.30;99.90;;;;;;5075610;28;20119;-73
2023/05/11 12:30:29;;;;;;;10.30;4.43;;;19.20;99.90;;;;;;5002428;28;35918;-72
2023/05/11 12:32:56;;;;;;;9.40;4.00;;;19.20;99.90;;;;;;5060555;28;246649;-72
2023/05/11 12:35:24;;;;;;;10.73;4.43;;;19.30;99.90;;;;;;5027115;28;24265;-73